sensor_id;sensor_type;location;lat;lon;timestamp;temperature;humidity
26107;DHT22;13866;50.748;12.630;2023-03-23T00:01:08;12.60;99.90
26107;DHT22;13866;50.748;12.630;2023-03-23T00:03:36;12.70;99.90
26107;DHT22;13866;50.748;12.630;2023-03-23T00:06:02;12.70;99.90
26107;DHT22;13866;50.748;12.630;2023-03-23T00:08:37;12.70;99.90
26107;DHT22;13866;50.748;12.630;2023-03-23T00:11:06;12.70;99.90
26107;DHT22;13866;50.748;12.630;2023-03-23T00:13:32;12.70;99.90
26107;DHT22;13866;50.748;12.630;2023-03-23T00:15:58;12.70;99.90
26107;DHT22;13866;50.748;12.630;2023-03-23T00:18:24;12.70;99.90
26107;DHT22;13866;50.748;12.630;2023-03-23T00:20:54;12.70;99.90
26107;DHT22;13866;50.748;12.630;2023-03-23T00:23:22;12.80;99.90
26107;DHT22;13866;50.748;12.630;2023-03-23T00:25:50;12.80;99.90
26107;DHT22;13866;50.748;12.630;2023-03-23T00:28:18;12.70;99.90
26107;DHT22;13866;50.748;12.630;2023-03-23T00:30:54;12.80;99.90
26107;DHT22;13866;50.748;12.630;2023-03-23T00:33:22;12.70;99.90
26107;DHT22;13866;50.748;12.630;2023-03-23T00:35:47;12.80;99.90
26107;DHT22;13866;50.748;12.630;2023-03-23T00:38:14;12.80;99.90
26107;DHT22;13866;50.748;12.630;2023-03-23T00:40:39;12.80;99.90
26107;DHT22;13866;50.748;12.630;2023-03-23T00:43:05;12.80;99.90
26107;DHT22;13866;50.748;12.630;2023-03-23T00:45:30;12.70;99.90
26107;DHT22;13866;50.748;12.630;2023-03-23T00:47:57;12.70;99.90
26107;DHT22;13866;50.748;12.630;2023-03-23T00:50:27;12.70;99.90
26107;DHT22;13866;50.748;12.630;2023-03-23T00:52:52;12.80;99.90
26107;DHT22;13866;50.748;12.630;2023-03-23T00:55:20;12.80;99.90
26107;DHT22;13866;50.748;12.630;2023-03-23T00:57:46;12.80;99.90
26107;DHT22;13866;50.748;12.630;2023-03-23T01:00:13;12.80;99.90
26107;DHT22;13866;50.748;12.630;2023-03-23T01:02:39;12.90;99.90
26107;DHT22;13866;50.748;12.630;2023-03-23T01:05:06;12.80;99.90
26107;DHT22;13866;50.748;12.630;2023-03-23T01:07:31;12.80;99.90
26107;DHT22;13866;50.748;12.630;2023-03-23T01:09:57;12.80;99.90
26107;DHT22;13866;50.748;12.630;2023-03-23T01:12:23;12.80;99.90
26107;DHT22;13866;50.748;12.630;2023-03-23T01:14:50;12.80;99.90
26107;DHT22;13866;50.748;12.630;2023-03-23T01:17:16;12.80;99.90
26107;DHT22;13866;50.748;12.630;2023-03-23T01:19:41;12.90;99.90
26107;DHT22;13866;50.748;12.630;2023-03-23T01:22:07;12.80;99.90
26107;DHT22;13866;50.748;12.630;2023-03-23T01:24:33;12.90;99.90
26107;DHT22;13866;50.748;12.630;2023-03-23T01:26:58;12.80;99.90
26107;DHT22;13866;50.748;12.630;2023-03-23T01:29:27;12.90;99.90
26107;DHT22;13866;50.748;12.630;2023-03-23T01:31:52;12.90;99.90
26107;DHT22;13866;50.748;12.630;2023-03-23T01:34:18;12.90;99.90
26107;DHT22;13866;50.748;12.630;2023-03-23T01:36:43;12.90;99.90
26107;DHT22;13866;50.748;12.630;2023-03-23T01:39:08;12.90;99.90
26107;DHT22;13866;50.748;12.630;2023-03-23T01:41:35;12.90;99.90
26107;DHT22;13866;50.748;12.630;2023-03-23T01:44:04;12.90;99.90
26107;DHT22;13866;50.748;12.630;2023-03-23T01:46:32;12.90;99.90
26107;DHT22;13866;50.748;12.630;2023-03-23T01:49:02;12.90;99.90
26107;DHT22;13866;50.748;12.630;2023-03-23T01:51:33;12.90;99.90
26107;DHT22;13866;50.748;12.630;2023-03-23T01:54:03;12.90;99.90
26107;DHT22;13866;50.748;12.630;2023-03-23T01:56:36;12.90;99.90
26107;DHT22;13866;50.748;12.630;2023-03-23T01:59:06;12.90;99.90
26107;DHT22;13866;50.748;12.630;2023-03-23T02:01:32;12.90;99.90
26107;DHT22;13866;50.748;12.630;2023-03-23T02:04:03;12.90;99.90
26107;DHT22;13866;50.748;12.630;2023-03-23T02:06:30;12.90;99.90
26107;DHT22;13866;50.748;12.630;2023-03-23T02:08:55;12.90;99.90
26107;DHT22;13866;50.748;12.630;2023-03-23T02:11:22;12.90;99.90
26107;DHT22;13866;50.748;12.630;2023-03-23T02:13:48;12.90;99.90
26107;DHT22;13866;50.748;12.630;2023-03-23T02:16:20;12.90;99.90
26107;DHT22;13866;50.748;12.630;2023-03-23T02:19:10;12.80;99.90
26107;DHT22;13866;50.748;12.630;2023-03-23T02:24:43;12.70;99.90
26107;DHT22;13866;50.748;12.630;2023-03-23T02:27:40;12.60;99.90
26107;DHT22;13866;50.748;12.630;2023-03-23T02:33:37;12.60;99.90
26107;DHT22;13866;50.748;12.630;2023-03-23T02:36:38;12.70;99.90
26107;DHT22;13866;50.748;12.630;2023-03-23T02:41:54;12.70;99.90
26107;DHT22;13866;50.748;12.630;2023-03-23T02:44:24;12.70;99.90
26107;DHT22;13866;50.748;12.630;2023-03-23T02:46:56;12.70;99.90
26107;DHT22;13866;50.748;12.630;2023-03-23T02:49:22;12.70;99.90
26107;DHT22;13866;50.748;12.630;2023-03-23T02:51:50;12.70;99.90
26107;DHT22;13866;50.748;12.630;2023-03-23T02:54:18;12.70;99.90
26107;DHT22;13866;50.748;12.630;2023-03-23T02:56:44;12.60;99.90
26107;DHT22;13866;50.748;12.630;2023-03-23T02:59:10;12.60;99.90
26107;DHT22;13866;50.748;12.630;2023-03-23T03:04:06;12.50;99.90
26107;DHT22;13866;50.748;12.630;2023-03-23T03:06:49;12.50;99.90
26107;DHT22;13866;50.748;12.630;2023-03-23T03:12:11;12.40;99.90
26107;DHT22;13866;50.748;12.630;2023-03-23T03:14:44;12.40;99.90
26107;DHT22;13866;50.748;12.630;2023-03-23T03:17:25;12.30;99.90
26107;DHT22;13866;50.748;12.630;2023-03-23T03:19:58;12.30;99.90
26107;DHT22;13866;50.748;12.630;2023-03-23T03:22:35;12.40;99.90
26107;DHT22;13866;50.748;12.630;2023-03-23T03:25:03;12.40;99.90
26107;DHT22;13866;50.748;12.630;2023-03-23T03:27:29;12.40;99.90
26107;DHT22;13866;50.748;12.630;2023-03-23T03:29:59;12.40;99.90
26107;DHT22;13866;50.748;12.630;2023-03-23T03:32:31;12.40;99.90
26107;DHT22;13866;50.748;12.630;2023-03-23T03:35:00;12.40;99.90
26107;DHT22;13866;50.748;12.630;2023-03-23T03:37:26;12.40;99.90
26107;DHT22;13866;50.748;12.630;2023-03-23T03:39:52;12.40;99.90
26107;DHT22;13866;50.748;12.630;2023-03-23T03:42:17;12.30;99.90
26107;DHT22;13866;50.748;12.630;2023-03-23T03:44:43;12.30;99.90
26107;DHT22;13866;50.748;12.630;2023-03-23T03:47:08;12.30;99.90
26107;DHT22;13866;50.748;12.630;2023-03-23T03:49:34;12.30;99.90
26107;DHT22;13866;50.748;12.630;2023-03-23T03:52:00;12.30;99.90
26107;DHT22;13866;50.748;12.630;2023-03-23T03:54:25;12.40;99.90
26107;DHT22;13866;50.748;12.630;2023-03-23T03:56:52;12.40;99.90
26107;DHT22;13866;50.748;12.630;2023-03-23T03:59:23;12.30;99.90
26107;DHT22;13866;50.748;12.630;2023-03-23T04:01:48;12.30;99.90
26107;DHT22;13866;50.748;12.630;2023-03-23T04:04:19;12.40;99.90
26107;DHT22;13866;50.748;12.630;2023-03-23T04:06:45;12.40;99.90
26107;DHT22;13866;50.748;12.630;2023-03-23T04:09:10;12.40;99.90
26107;DHT22;13866;50.748;12.630;2023-03-23T04:11:35;12.30;99.90
26107;DHT22;13866;50.748;12.630;2023-03-23T04:14:01;12.30;99.90
26107;DHT22;13866;50.748;12.630;2023-03-23T04:16:27;12.30;99.90
26107;DHT22;13866;50.748;12.630;2023-03-23T04:18:55;12.30;99.90
26107;DHT22;13866;50.748;12.630;2023-03-23T04:21:21;12.30;99.90
26107;DHT22;13866;50.748;12.630;2023-03-23T04:23:47;12.30;99.90
26107;DHT22;13866;50.748;12.630;2023-03-23T04:26:12;12.40;99.90
26107;DHT22;13866;50.748;12.630;2023-03-23T04:28:39;12.40;99.90
26107;DHT22;13866;50.748;12.630;2023-03-23T04:31:04;12.40;99.90
26107;DHT22;13866;50.748;12.630;2023-03-23T04:33:30;12.40;99.90
26107;DHT22;13866;50.748;12.630;2023-03-23T04:35:58;12.40;99.90
26107;DHT22;13866;50.748;12.630;2023-03-23T04:38:27;12.30;99.90
26107;DHT22;13866;50.748;12.630;2023-03-23T04:40:53;12.30;99.90
26107;DHT22;13866;50.748;12.630;2023-03-23T04:43:20;12.30;99.90
26107;DHT22;13866;50.748;12.630;2023-03-23T04:45:53;12.30;99.90
26107;DHT22;13866;50.748;12.630;2023-03-23T04:48:22;12.30;99.90
26107;DHT22;13866;50.748;12.630;2023-03-23T04:50:49;12.30;99.90
26107;DHT22;13866;50.748;12.630;2023-03-23T04:53:16;12.40;99.90
26107;DHT22;13866;50.748;12.630;2023-03-23T04:55:42;12.40;99.90
26107;DHT22;13866;50.748;12.630;2023-03-23T04:58:08;12.40;99.90
26107;DHT22;13866;50.748;12.630;2023-03-23T05:00:34;12.30;99.90
26107;DHT22;13866;50.748;12.630;2023-03-23T05:03:00;12.30;99.90
26107;DHT22;13866;50.748;12.630;2023-03-23T05:05:27;12.40;99.90
26107;DHT22;13866;50.748;12.630;2023-03-23T05:07:55;12.30;99.90
26107;DHT22;13866;50.748;12.630;2023-03-23T05:10:22;12.30;99.90
26107;DHT22;13866;50.748;12.630;2023-03-23T05:12:47;12.40;99.90
26107;DHT22;13866;50.748;12.630;2023-03-23T05:15:15;12.40;99.90
26107;DHT22;13866;50.748;12.630;2023-03-23T05:17:41;12.40;99.90
26107;DHT22;13866;50.748;12.630;2023-03-23T05:20:11;12.50;99.90
26107;DHT22;13866;50.748;12.630;2023-03-23T05:22:38;12.50;99.90
26107;DHT22;13866;50.748;12.630;2023-03-23T05:25:05;12.50;99.90
26107;DHT22;13866;50.748;12.630;2023-03-23T05:27:31;12.50;99.90
26107;DHT22;13866;50.748;12.630;2023-03-23T05:29:58;12.50;99.90
26107;DHT22;13866;50.748;12.630;2023-03-23T05:32:28;12.50;99.90
26107;DHT22;13866;50.748;12.630;2023-03-23T05:34:58;12.60;99.90
26107;DHT22;13866;50.748;12.630;2023-03-23T05:37:26;12.50;99.90
26107;DHT22;13866;50.748;12.630;2023-03-23T05:39:53;12.50;99.90
26107;DHT22;13866;50.748;12.630;2023-03-23T05:42:23;12.60;99.90
26107;DHT22;13866;50.748;12.630;2023-03-23T05:44:49;12.60;99.90
26107;DHT22;13866;50.748;12.630;2023-03-23T05:47:16;12.60;99.90
26107;DHT22;13866;50.748;12.630;2023-03-23T05:49:42;12.60;99.90
26107;DHT22;13866;50.748;12.630;2023-03-23T05:52:07;12.60;99.90
26107;DHT22;13866;50.748;12.630;2023-03-23T05:54:33;12.60;99.90
26107;DHT22;13866;50.748;12.630;2023-03-23T05:56:59;12.60;99.90
26107;DHT22;13866;50.748;12.630;2023-03-23T05:59:25;12.60;99.90
26107;DHT22;13866;50.748;12.630;2023-03-23T06:01:52;12.70;99.90
26107;DHT22;13866;50.748;12.630;2023-03-23T06:04:19;12.70;99.90
26107;DHT22;13866;50.748;12.630;2023-03-23T06:06:44;12.60;99.90
26107;DHT22;13866;50.748;12.630;2023-03-23T06:09:10;12.60;99.90
26107;DHT22;13866;50.748;12.630;2023-03-23T06:11:36;12.60;99.90
26107;DHT22;13866;50.748;12.630;2023-03-23T06:14:03;12.60;99.90
26107;DHT22;13866;50.748;12.630;2023-03-23T06:16:28;12.70;99.90
26107;DHT22;13866;50.748;12.630;2023-03-23T06:18:54;12.70;99.90
26107;DHT22;13866;50.748;12.630;2023-03-23T06:21:22;12.70;99.90
26107;DHT22;13866;50.748;12.630;2023-03-23T06:23:47;12.70;99.90
26107;DHT22;13866;50.748;12.630;2023-03-23T06:26:14;12.70;99.90
26107;DHT22;13866;50.748;12.630;2023-03-23T06:28:42;12.80;99.90
26107;DHT22;13866;50.748;12.630;2023-03-23T06:31:08;12.90;99.90
26107;DHT22;13866;50.748;12.630;2023-03-23T06:33:34;12.90;99.90
26107;DHT22;13866;50.748;12.630;2023-03-23T06:36:01;12.90;99.90
26107;DHT22;13866;50.748;12.630;2023-03-23T06:38:26;13.00;99.90
26107;DHT22;13866;50.748;12.630;2023-03-23T06:40:53;13.10;99.90
26107;DHT22;13866;50.748;12.630;2023-03-23T06:43:19;13.10;99.90
26107;DHT22;13866;50.748;12.630;2023-03-23T06:45:45;13.20;99.90
26107;DHT22;13866;50.748;12.630;2023-03-23T06:48:10;13.20;99.90
26107;DHT22;13866;50.748;12.630;2023-03-23T06:50:36;13.20;99.90
26107;DHT22;13866;50.748;12.630;2023-03-23T06:53:01;13.30;99.90
26107;DHT22;13866;50.748;12.630;2023-03-23T06:55:27;13.30;99.90
26107;DHT22;13866;50.748;12.630;2023-03-23T06:57:52;13.20;99.90
26107;DHT22;13866;50.748;12.630;2023-03-23T07:00:18;13.20;99.90
26107;DHT22;13866;50.748;12.630;2023-03-23T07:02:44;13.20;99.90
26107;DHT22;13866;50.748;12.630;2023-03-23T07:05:10;13.10;99.90
26107;DHT22;13866;50.748;12.630;2023-03-23T07:07:40;13.10;99.90
26107;DHT22;13866;50.748;12.630;2023-03-23T07:10:07;13.10;99.90
26107;DHT22;13866;50.748;12.630;2023-03-23T07:12:34;13.20;99.90
26107;DHT22;13866;50.748;12.630;2023-03-23T07:15:02;13.20;99.90
26107;DHT22;13866;50.748;12.630;2023-03-23T07:17:27;13.30;99.90
26107;DHT22;13866;50.748;12.630;2023-03-23T07:19:53;13.30;99.90
26107;DHT22;13866;50.748;12.630;2023-03-23T07:22:19;13.30;99.90
26107;DHT22;13866;50.748;12.630;2023-03-23T07:24:44;13.30;99.90
26107;DHT22;13866;50.748;12.630;2023-03-23T07:27:10;13.40;99.90
26107;DHT22;13866;50.748;12.630;2023-03-23T07:29:36;13.30;99.90
26107;DHT22;13866;50.748;12.630;2023-03-23T07:32:04;13.20;99.90
26107;DHT22;13866;50.748;12.630;2023-03-23T07:34:30;13.20;99.90
26107;DHT22;13866;50.748;12.630;2023-03-23T07:36:57;13.20;99.90
26107;DHT22;13866;50.748;12.630;2023-03-23T07:39:22;13.20;99.90
26107;DHT22;13866;50.748;12.630;2023-03-23T07:41:49;13.20;99.90
26107;DHT22;13866;50.748;12.630;2023-03-23T07:44:15;13.30;99.90
26107;DHT22;13866;50.748;12.630;2023-03-23T07:46:40;13.40;99.90
26107;DHT22;13866;50.748;12.630;2023-03-23T07:49:07;13.40;99.90
26107;DHT22;13866;50.748;12.630;2023-03-23T07:51:33;13.60;99.90
26107;DHT22;13866;50.748;12.630;2023-03-23T07:53:59;13.60;99.90
26107;DHT22;13866;50.748;12.630;2023-03-23T07:56:27;13.70;99.90
26107;DHT22;13866;50.748;12.630;2023-03-23T07:58:52;13.60;99.90
26107;DHT22;13866;50.748;12.630;2023-03-23T08:01:18;13.50;99.90
26107;DHT22;13866;50.748;12.630;2023-03-23T08:03:43;13.30;99.90
26107;DHT22;13866;50.748;12.630;2023-03-23T08:06:09;13.20;99.90
26107;DHT22;13866;50.748;12.630;2023-03-23T08:08:35;13.20;99.90
26107;DHT22;13866;50.748;12.630;2023-03-23T08:11:02;13.10;99.90
26107;DHT22;13866;50.748;12.630;2023-03-23T08:13:28;13.00;99.90
26107;DHT22;13866;50.748;12.630;2023-03-23T08:15:54;12.90;99.90
26107;DHT22;13866;50.748;12.630;2023-03-23T08:18:19;12.90;99.90
26107;DHT22;13866;50.748;12.630;2023-03-23T08:20:45;12.80;99.90
26107;DHT22;13866;50.748;12.630;2023-03-23T08:23:11;12.80;99.90
26107;DHT22;13866;50.748;12.630;2023-03-23T08:25:37;12.80;99.90
26107;DHT22;13866;50.748;12.630;2023-03-23T08:28:03;12.80;99.90
26107;DHT22;13866;50.748;12.630;2023-03-23T08:30:30;12.80;99.90
26107;DHT22;13866;50.748;12.630;2023-03-23T08:32:58;12.80;99.90
26107;DHT22;13866;50.748;12.630;2023-03-23T08:35:24;12.80;99.90
26107;DHT22;13866;50.748;12.630;2023-03-23T08:37:49;12.80;99.90
26107;DHT22;13866;50.748;12.630;2023-03-23T08:40:21;12.80;99.90
26107;DHT22;13866;50.748;12.630;2023-03-23T08:42:48;12.80;99.90
26107;DHT22;13866;50.748;12.630;2023-03-23T08:45:18;12.80;99.90
26107;DHT22;13866;50.748;12.630;2023-03-23T08:47:44;12.80;99.90
26107;DHT22;13866;50.748;12.630;2023-03-23T08:50:13;12.80;99.90
26107;DHT22;13866;50.748;12.630;2023-03-23T08:52:40;12.80;99.90
26107;DHT22;13866;50.748;12.630;2023-03-23T08:55:06;12.80;99.90
26107;DHT22;13866;50.748;12.630;2023-03-23T08:57:34;12.80;99.90
26107;DHT22;13866;50.748;12.630;2023-03-23T09:00:02;12.80;99.90
26107;DHT22;13866;50.748;12.630;2023-03-23T09:02:44;12.90;99.90
26107;DHT22;13866;50.748;12.630;2023-03-23T09:05:11;13.00;99.90
26107;DHT22;13866;50.748;12.630;2023-03-23T09:07:41;13.10;99.90
26107;DHT22;13866;50.748;12.630;2023-03-23T09:10:07;13.20;99.90
26107;DHT22;13866;50.748;12.630;2023-03-23T09:12:33;13.30;99.90
26107;DHT22;13866;50.748;12.630;2023-03-23T09:14:59;13.30;99.90
26107;DHT22;13866;50.748;12.630;2023-03-23T09:17:24;13.30;99.90
26107;DHT22;13866;50.748;12.630;2023-03-23T09:19:50;13.40;99.90
26107;DHT22;13866;50.748;12.630;2023-03-23T09:22:16;13.40;99.90
26107;DHT22;13866;50.748;12.630;2023-03-23T09:24:45;13.40;99.90
26107;DHT22;13866;50.748;12.630;2023-03-23T09:27:11;13.40;99.90
26107;DHT22;13866;50.748;12.630;2023-03-23T09:29:37;13.60;99.90
26107;DHT22;13866;50.748;12.630;2023-03-23T09:32:03;13.60;99.90
26107;DHT22;13866;50.748;12.630;2023-03-23T09:34:29;13.60;99.90
26107;DHT22;13866;50.748;12.630;2023-03-23T09:36:54;13.60;99.90
26107;DHT22;13866;50.748;12.630;2023-03-23T09:39:20;13.50;99.90
26107;DHT22;13866;50.748;12.630;2023-03-23T09:42:05;13.50;99.90
26107;DHT22;13866;50.748;12.630;2023-03-23T09:44:54;13.60;99.90
26107;DHT22;13866;50.748;12.630;2023-03-23T09:52:17;13.60;99.90
26107;DHT22;13866;50.748;12.630;2023-03-23T09:54:53;13.60;99.90
26107;DHT22;13866;50.748;12.630;2023-03-23T09:57:32;13.70;99.90
26107;DHT22;13866;50.748;12.630;2023-03-23T10:00:12;13.70;99.90
26107;DHT22;13866;50.748;12.630;2023-03-23T10:02:49;13.70;99.90
26107;DHT22;13866;50.748;12.630;2023-03-23T10:05:32;13.60;99.90
26107;DHT22;13866;50.748;12.630;2023-03-23T10:08:00;13.60;99.90
26107;DHT22;13866;50.748;12.630;2023-03-23T10:11:10;13.60;99.90
26107;DHT22;13866;50.748;12.630;2023-03-23T10:13:44;13.70;99.90
26107;DHT22;13866;50.748;12.630;2023-03-23T10:16:17;13.70;99.90
26107;DHT22;13866;50.748;12.630;2023-03-23T10:19:00;13.60;99.90
26107;DHT22;13866;50.748;12.630;2023-03-23T10:21:27;13.70;99.90
26107;DHT22;13866;50.748;12.630;2023-03-23T10:24:02;13.80;99.90
26107;DHT22;13866;50.748;12.630;2023-03-23T10:29:29;13.90;99.90
26107;DHT22;13866;50.748;12.630;2023-03-23T10:32:09;13.90;99.90
26107;DHT22;13866;50.748;12.630;2023-03-23T10:34:52;13.80;99.90
26107;DHT22;13866;50.748;12.630;2023-03-23T10:37:34;13.60;99.90
26107;DHT22;13866;50.748;12.630;2023-03-23T10:40:04;13.60;99.90
26107;DHT22;13866;50.748;12.630;2023-03-23T10:42:37;13.40;99.90
26107;DHT22;13866;50.748;12.630;2023-03-23T10:47:48;13.20;99.90
26107;DHT22;13866;50.748;12.630;2023-03-23T10:50:17;13.20;99.90
26107;DHT22;13866;50.748;12.630;2023-03-23T10:52:44;13.20;99.90
26107;DHT22;13866;50.748;12.630;2023-03-23T10:55:18;13.20;99.90
26107;DHT22;13866;50.748;12.630;2023-03-23T10:58:03;13.10;99.90
26107;DHT22;13866;50.748;12.630;2023-03-23T11:00:30;13.10;99.90
26107;DHT22;13866;50.748;12.630;2023-03-23T11:03:19;13.00;99.90
26107;DHT22;13866;50.748;12.630;2023-03-23T11:05:56;13.00;99.90
26107;DHT22;13866;50.748;12.630;2023-03-23T11:08:27;13.00;99.90
26107;DHT22;13866;50.748;12.630;2023-03-23T11:10:55;13.00;99.90
26107;DHT22;13866;50.748;12.630;2023-03-23T11:13:27;13.00;99.90
26107;DHT22;13866;50.748;12.630;2023-03-23T11:15:54;13.00;99.90
26107;DHT22;13866;50.748;12.630;2023-03-23T11:18:22;13.00;99.90
26107;DHT22;13866;50.748;12.630;2023-03-23T11:20:53;13.00;99.90
26107;DHT22;13866;50.748;12.630;2023-03-23T11:23:29;13.00;99.90
26107;DHT22;13866;50.748;12.630;2023-03-23T11:31:30;13.20;99.90
26107;DHT22;13866;50.748;12.630;2023-03-23T11:34:00;13.20;99.90
26107;DHT22;13866;50.748;12.630;2023-03-23T11:36:31;13.30;99.90
26107;DHT22;13866;50.748;12.630;2023-03-23T11:38:58;13.40;99.90
26107;DHT22;13866;50.748;12.630;2023-03-23T11:41:24;13.50;99.90
26107;DHT22;13866;50.748;12.630;2023-03-23T11:43:52;13.60;99.90
26107;DHT22;13866;50.748;12.630;2023-03-23T11:46:34;13.60;99.90
26107;DHT22;13866;50.748;12.630;2023-03-23T11:49:05;13.60;99.90
26107;DHT22;13866;50.748;12.630;2023-03-23T11:51:45;13.80;99.90
26107;DHT22;13866;50.748;12.630;2023-03-23T11:56:45;14.00;99.90
26107;DHT22;13866;50.748;12.630;2023-03-23T11:59:17;14.00;99.90
26107;DHT22;13866;50.748;12.630;2023-03-23T12:01:51;14.00;99.90
26107;DHT22;13866;50.748;12.630;2023-03-23T12:04:31;13.90;99.90
26107;DHT22;13866;50.748;12.630;2023-03-23T12:12:51;14.10;99.90
26107;DHT22;13866;50.748;12.630;2023-03-23T12:15:36;14.10;99.90
26107;DHT22;13866;50.748;12.630;2023-03-23T12:20:57;14.20;99.90
26107;DHT22;13866;50.748;12.630;2023-03-23T12:23:27;14.30;99.90
26107;DHT22;13866;50.748;12.630;2023-03-23T12:26:13;14.10;99.90
26107;DHT22;13866;50.748;12.630;2023-03-23T12:34:43;14.00;99.90
26107;DHT22;13866;50.748;12.630;2023-03-23T12:40:10;13.80;99.90
26107;DHT22;13866;50.748;12.630;2023-03-23T12:48:10;13.70;99.90
26107;DHT22;13866;50.748;12.630;2023-03-23T12:50:58;13.80;99.90
26107;DHT22;13866;50.748;12.630;2023-03-23T12:53:31;13.80;99.90
26107;DHT22;13866;50.748;12.630;2023-03-23T12:58:45;13.80;99.90
26107;DHT22;13866;50.748;12.630;2023-03-23T13:01:25;13.70;99.90
26107;DHT22;13866;50.748;12.630;2023-03-23T13:04:11;13.70;99.90
26107;DHT22;13866;50.748;12.630;2023-03-23T13:06:44;13.60;99.90
26107;DHT22;13866;50.748;12.630;2023-03-23T13:12:04;13.60;99.90
26107;DHT22;13866;50.748;12.630;2023-03-23T13:17:47;13.50;99.90
26107;DHT22;13866;50.748;12.630;2023-03-23T13:20:43;13.50;99.90
26107;DHT22;13866;50.748;12.630;2023-03-23T13:25:55;13.60;99.90
26107;DHT22;13866;50.748;12.630;2023-03-23T13:28:28;13.60;99.90
26107;DHT22;13866;50.748;12.630;2023-03-23T13:30:59;13.60;99.90
26107;DHT22;13866;50.748;12.630;2023-03-23T13:33:29;13.70;99.90
26107;DHT22;13866;50.748;12.630;2023-03-23T13:35:55;13.60;99.90
26107;DHT22;13866;50.748;12.630;2023-03-23T13:38:26;13.70;99.90
26107;DHT22;13866;50.748;12.630;2023-03-23T13:40:54;13.80;99.90
26107;DHT22;13866;50.748;12.630;2023-03-23T13:43:32;13.80;99.90
26107;DHT22;13866;50.748;12.630;2023-03-23T13:46:10;13.80;99.90
26107;DHT22;13866;50.748;12.630;2023-03-23T13:51:32;14.10;99.90
26107;DHT22;13866;50.748;12.630;2023-03-23T13:57:00;14.30;99.90
26107;DHT22;13866;50.748;12.630;2023-03-23T14:01:56;14.20;99.90
26107;DHT22;13866;50.748;12.630;2023-03-23T14:04:31;14.10;99.90
26107;DHT22;13866;50.748;12.630;2023-03-23T14:07:11;14.00;99.90
26107;DHT22;13866;50.748;12.630;2023-03-23T14:09:42;14.00;99.90
26107;DHT22;13866;50.748;12.630;2023-03-23T14:12:19;14.00;99.90
26107;DHT22;13866;50.748;12.630;2023-03-23T14:15:05;13.90;99.90
26107;DHT22;13866;50.748;12.630;2023-03-23T14:17:40;13.80;99.90
26107;DHT22;13866;50.748;12.630;2023-03-23T14:20:07;13.90;99.90
26107;DHT22;13866;50.748;12.630;2023-03-23T14:22:37;13.90;99.90
26107;DHT22;13866;50.748;12.630;2023-03-23T14:25:15;13.80;99.90
26107;DHT22;13866;50.748;12.630;2023-03-23T14:27:42;13.90;99.90
26107;DHT22;13866;50.748;12.630;2023-03-23T14:30:14;13.90;99.90
26107;DHT22;13866;50.748;12.630;2023-03-23T14:32:40;13.90;99.90
26107;DHT22;13866;50.748;12.630;2023-03-23T14:35:30;13.90;99.90
26107;DHT22;13866;50.748;12.630;2023-03-23T14:37:55;13.90;99.90
26107;DHT22;13866;50.748;12.630;2023-03-23T14:40:22;13.90;99.90
26107;DHT22;13866;50.748;12.630;2023-03-23T14:42:49;13.80;99.90
26107;DHT22;13866;50.748;12.630;2023-03-23T14:45:17;13.80;99.90
26107;DHT22;13866;50.748;12.630;2023-03-23T14:47:46;13.70;99.90
26107;DHT22;13866;50.748;12.630;2023-03-23T14:50:47;13.70;99.90
26107;DHT22;13866;50.748;12.630;2023-03-23T14:55:55;13.70;99.90
26107;DHT22;13866;50.748;12.630;2023-03-23T14:58:23;13.80;99.90
26107;DHT22;13866;50.748;12.630;2023-03-23T15:01:01;13.80;99.90
26107;DHT22;13866;50.748;12.630;2023-03-23T15:03:31;13.90;99.90
26107;DHT22;13866;50.748;12.630;2023-03-23T15:06:01;13.90;99.90
26107;DHT22;13866;50.748;12.630;2023-03-23T15:08:31;13.90;99.90
26107;DHT22;13866;50.748;12.630;2023-03-23T15:11:11;13.90;99.90
26107;DHT22;13866;50.748;12.630;2023-03-23T15:13:42;13.90;99.90
26107;DHT22;13866;50.748;12.630;2023-03-23T15:16:22;13.80;99.90
26107;DHT22;13866;50.748;12.630;2023-03-23T15:18:57;13.70;99.90
26107;DHT22;13866;50.748;12.630;2023-03-23T15:21:28;13.60;99.90
26107;DHT22;13866;50.748;12.630;2023-03-23T15:23:54;13.60;99.90
26107;DHT22;13866;50.748;12.630;2023-03-23T15:26:29;13.50;99.90
26107;DHT22;13866;50.748;12.630;2023-03-23T15:29:05;13.40;99.90
26107;DHT22;13866;50.748;12.630;2023-03-23T15:31:40;13.40;99.90
26107;DHT22;13866;50.748;12.630;2023-03-23T15:34:10;13.30;99.90
26107;DHT22;13866;50.748;12.630;2023-03-23T15:36:36;13.30;99.90
26107;DHT22;13866;50.748;12.630;2023-03-23T15:39:02;13.30;99.90
26107;DHT22;13866;50.748;12.630;2023-03-23T15:41:31;13.20;99.90
26107;DHT22;13866;50.748;12.630;2023-03-23T15:44:10;13.10;99.90
26107;DHT22;13866;50.748;12.630;2023-03-23T15:46:35;13.00;99.90
26107;DHT22;13866;50.748;12.630;2023-03-23T15:49:08;12.90;99.90
26107;DHT22;13866;50.748;12.630;2023-03-23T15:51:35;12.80;99.90
26107;DHT22;13866;50.748;12.630;2023-03-23T15:54:01;12.70;99.90
26107;DHT22;13866;50.748;12.630;2023-03-23T15:56:26;12.60;99.90
26107;DHT22;13866;50.748;12.630;2023-03-23T15:58:52;12.50;99.90
26107;DHT22;13866;50.748;12.630;2023-03-23T16:01:21;12.50;99.90
26107;DHT22;13866;50.748;12.630;2023-03-23T16:03:57;12.40;99.90
26107;DHT22;13866;50.748;12.630;2023-03-23T16:06:25;12.40;99.90
26107;DHT22;13866;50.748;12.630;2023-03-23T16:08:55;12.40;99.90
26107;DHT22;13866;50.748;12.630;2023-03-23T16:11:22;12.30;99.90
26107;DHT22;13866;50.748;12.630;2023-03-23T16:13:48;12.30;99.90
26107;DHT22;13866;50.748;12.630;2023-03-23T16:16:24;12.40;99.90
26107;DHT22;13866;50.748;12.630;2023-03-23T16:18:51;12.40;99.90
26107;DHT22;13866;50.748;12.630;2023-03-23T16:21:17;12.30;99.90
26107;DHT22;13866;50.748;12.630;2023-03-23T16:23:42;12.30;99.90
26107;DHT22;13866;50.748;12.630;2023-03-23T16:26:11;12.30;99.90
26107;DHT22;13866;50.748;12.630;2023-03-23T16:28:36;12.30;99.90
26107;DHT22;13866;50.748;12.630;2023-03-23T16:31:02;12.30;99.90
26107;DHT22;13866;50.748;12.630;2023-03-23T16:33:27;12.40;99.90
26107;DHT22;13866;50.748;12.630;2023-03-23T16:35:53;12.30;99.90
26107;DHT22;13866;50.748;12.630;2023-03-23T16:38:18;12.40;99.90
26107;DHT22;13866;50.748;12.630;2023-03-23T16:40:45;12.40;99.90
26107;DHT22;13866;50.748;12.630;2023-03-23T16:43:11;12.40;99.90
26107;DHT22;13866;50.748;12.630;2023-03-23T16:45:39;12.40;99.90
26107;DHT22;13866;50.748;12.630;2023-03-23T16:48:05;12.40;99.90